Time;durP1;ratioP1;P1;durP2;ratioP2;P2;SDS_P1;SDS_P2;PMS_P1;PMS_P2;Temp;Humidity;BMP_temperature;BMP_pressure;BME280_temperature;BME280_humidity;BME280_pressure;Samples;Min_cycle;Max_cycle;Signal;HPM_P1;HPM_P2
2023/01/01 00:02:01;;;;;;;8.27;6.27;;;12.40;99.90;;;;;;5031865;28;20215;-71
2023/01/01 00:04:27;;;;;;;9.97;6.27;;;12.40;99.90;;;;;;5033238;28;20605;-71
2023/01/01 00:06:53;;;;;;;10.70;6.20;;;12.40;99.90;;;;;;5004599;28;20304;-71
2023/01/01 00:12:03;;;;;;;8.87;6.63;;;12.40;99.90;;;;;;5049238;28;20220;-72
2023/01/01 00:14:29;;;;;;;11.63;7.97;;;12.40;99.90;;;;;;5016173;28;20455;-73
2023/01/01 00:16:55;;;;;;;10.07;7.53;;;12.30;99.90;;;;;;5020524;28;20504;-71
2023/01/01 00:19:21;;;;;;;9.77;7.20;;;12.30;99.90;;;;;;5026773;28;20684;-70
2023/01/01 00:21:47;;;;;;;8.43;6.03;;;12.40;99.90;;;;;;5032011;28;20227;-71
2023/01/01 00:24:12;;;;;;;7.13;5.77;;;12.40;99.90;;;;;;5034715;28;20546;-71
2023/01/01 00:26:38;;;;;;;8.47;6.13;;;12.30;99.90;;;;;;5028060;28;20215;-71
2023/01/01 00:29:04;;;;;;;8.20;5.40;;;12.30;99.90;;;;;;5033420;28;20718;-71
2023/01/01 00:31:30;;;;;;;7.30;5.37;;;12.30;99.90;;;;;;5033400;28;20270;-71
2023/01/01 00:33:56;;;;;;;6.33;5.00;;;12.30;99.90;;;;;;5030479;28;20455;-72
2023/01/01 00:36:24;;;;;;;7.87;5.30;;;12.20;99.90;;;;;;5005127;28;20498;-71
2023/01/01 00:38:50;;;;;;;5.57;4.40;;;12.20;99.90;;;;;;5033335;28;20463;-71
2023/01/01 00:41:17;;;;;;;6.07;4.60;;;12.20;99.90;;;;;;5016404;28;20570;-71
2023/01/01 00:43:43;;;;;;;6.87;4.93;;;12.20;99.90;;;;;;5017398;28;20703;-71
2023/01/01 00:46:10;;;;;;;5.97;4.47;;;12.20;99.90;;;;;;5016172;28;20994;-72
2023/01/01 00:48:36;;;;;;;5.63;3.97;;;12.20;99.90;;;;;;5030628;28;20457;-71
2023/01/01 00:51:02;;;;;;;6.73;4.30;;;12.20;99.90;;;;;;5018039;28;20461;-72
2023/01/01 00:53:28;;;;;;;8.40;5.13;;;12.20;99.90;;;;;;5014671;28;20467;-70
2023/01/01 00:55:55;;;;;;;7.70;4.97;;;12.20;99.90;;;;;;5032080;28;20455;-71
2023/01/01 00:58:21;;;;;;;5.93;4.83;;;12.20;99.90;;;;;;5012179;28;20471;-70
2023/01/01 01:00:48;;;;;;;6.80;4.53;;;12.20;99.90;;;;;;5027261;28;20435;-71
2023/01/01 01:03:26;;;;;;;6.60;4.60;;;12.20;99.90;;;;;;5012122;28;20455;-71
2023/01/01 01:05:58;;;;;;;6.17;4.20;;;12.20;99.90;;;;;;5030160;28;20454;-72
2023/01/01 01:08:25;;;;;;;9.40;5.33;;;12.20;99.90;;;;;;5031807;28;20454;-71
2023/01/01 01:10:52;;;;;;;6.00;5.23;;;12.20;99.90;;;;;;5031939;28;20454;-70
2023/01/01 01:13:18;;;;;;;9.00;6.00;;;12.20;99.90;;;;;;5031919;28;20974;-71
2023/01/01 01:15:43;;;;;;;6.93;5.13;;;12.20;99.90;;;;;;5032712;28;20508;-71
2023/01/01 01:18:09;;;;;;;7.00;5.40;;;12.20;99.90;;;;;;5013458;28;20708;-71
2023/01/01 01:20:35;;;;;;;9.07;5.90;;;12.20;99.90;;;;;;5029256;28;20275;-71
2023/01/01 01:23:00;;;;;;;8.20;6.00;;;12.20;99.90;;;;;;5039430;28;20583;-71
2023/01/01 01:25:26;;;;;;;9.00;5.70;;;12.20;99.90;;;;;;5044093;28;20216;-71
2023/01/01 01:27:52;;;;;;;7.97;5.90;;;12.20;99.90;;;;;;5027907;28;20286;-71
2023/01/01 01:30:17;;;;;;;10.20;6.17;;;12.20;99.90;;;;;;5015319;28;20314;-71
2023/01/01 01:32:43;;;;;;;8.50;5.97;;;12.20;99.90;;;;;;5031578;28;20247;-72
2023/01/01 01:35:09;;;;;;;11.20;6.27;;;12.20;99.90;;;;;;5048289;28;20212;-70
2023/01/01 01:37:34;;;;;;;6.10;5.30;;;12.30;99.90;;;;;;5028906;28;20550;-72
2023/01/01 01:40:00;;;;;;;6.83;5.47;;;12.40;99.90;;;;;;5031779;28;20250;-69
2023/01/01 01:42:26;;;;;;;8.77;6.17;;;12.30;99.90;;;;;;5007858;28;20299;-70
2023/01/01 01:44:56;;;;;;;7.50;4.87;;;12.30;99.90;;;;;;5020057;28;20258;-71
2023/01/01 01:47:42;;;;;;;6.60;5.50;;;12.30;99.90;;;;;;5023336;28;20775;-72
2023/01/01 01:50:12;;;;;;;6.13;4.80;;;12.40;99.90;;;;;;5011425;28;20459;-71
2023/01/01 01:52:45;;;;;;;4.77;4.30;;;12.40;99.90;;;;;;5028792;28;20463;-71
2023/01/01 01:55:12;;;;;;;7.30;5.03;;;12.40;99.90;;;;;;5007488;28;20908;-72
2023/01/01 01:57:39;;;;;;;13.73;4.93;;;12.30;99.90;;;;;;5031356;28;20463;-71
2023/01/01 02:00:06;;;;;;;5.10;3.70;;;12.30;99.90;;;;;;5017020;28;20470;-71
2023/01/01 02:02:56;;;;;;;3.87;3.50;;;12.40;99.90;;;;;;5019058;28;20451;-71
2023/01/01 02:05:23;;;;;;;5.63;4.10;;;12.40;99.90;;;;;;5038871;28;20549;-73
2023/01/01 02:07:51;;;;;;;4.20;3.10;;;12.40;99.90;;;;;;5045763;28;20955;-69
2023/01/01 02:10:17;;;;;;;3.60;3.20;;;12.40;99.90;;;;;;5047593;28;20450;-73
2023/01/01 02:12:43;;;;;;;3.40;3.10;;;12.40;99.90;;;;;;5031477;28;20454;-71
2023/01/01 02:15:09;;;;;;;4.23;3.83;;;12.40;99.90;;;;;;5016571;28;20481;-72
2023/01/01 02:17:57;;;;;;;6.40;3.40;;;12.40;99.90;;;;;;5013591;28;20444;-71
2023/01/01 02:20:35;;;;;;;4.60;2.90;;;12.40;99.90;;;;;;5027319;28;20482;-70
2023/01/01 02:23:25;;;;;;;5.83;3.83;;;12.40;99.90;;;;;;5027434;28;20459;-72
2023/01/01 02:26:19;;;;;;;5.20;3.30;;;12.40;99.90;;;;;;5000950;28;20869;-71
2023/01/01 02:28:58;;;;;;;3.37;2.47;;;12.40;99.90;;;;;;5039442;28;20508;-71
2023/01/01 02:31:30;;;;;;;3.53;3.23;;;12.40;99.90;;;;;;5013826;28;20878;-70
2023/01/01 02:34:00;;;;;;;3.87;3.07;;;12.40;99.90;;;;;;5019816;28;20876;-71
2023/01/01 02:36:28;;;;;;;3.90;3.20;;;12.30;99.90;;;;;;5026610;28;20462;-71
2023/01/01 02:38:57;;;;;;;4.27;2.97;;;12.30;99.90;;;;;;5014661;28;20536;-71
2023/01/01 02:41:29;;;;;;;4.00;3.43;;;12.30;99.90;;;;;;5036708;28;20458;-72
2023/01/01 02:43:55;;;;;;;5.07;3.33;;;12.30;99.90;;;;;;5031371;28;20454;-71
2023/01/01 02:46:21;;;;;;;5.30;3.37;;;12.30;99.90;;;;;;5030619;28;20515;-71
2023/01/01 02:48:51;;;;;;;6.03;3.07;;;12.30;99.90;;;;;;5014863;28;20247;-71
2023/01/01 02:51:37;;;;;;;4.80;3.40;;;12.30;99.90;;;;;;5035288;28;20232;-72
2023/01/01 02:54:09;;;;;;;8.63;3.57;;;12.20;99.90;;;;;;5030318;28;20451;-71
2023/01/01 02:56:44;;;;;;;5.50;3.03;;;12.20;99.90;;;;;;5030534;28;20474;-71
2023/01/01 03:02:36;;;;;;;4.23;2.60;;;12.20;99.90;;;;;;5027769;28;20537;-72
2023/01/01 03:06:21;;;;;;;4.70;3.63;;;12.20;99.90;;;;;;5031433;28;20538;-71
2023/01/01 03:08:40;;;;;;;6.30;3.30;;;12.20;99.90;;;;;;5028636;28;20447;-71
2023/01/01 03:11:10;;;;;;;3.40;3.07;;;12.20;99.90;;;;;;5022907;28;20450;-71
2023/01/01 03:13:45;;;;;;;2.83;2.53;;;12.10;99.90;;;;;;5017146;28;20454;-71
2023/01/01 03:16:26;;;;;;;3.30;2.83;;;12.10;99.90;;;;;;5028196;28;20470;-71
2023/01/01 03:19:30;;;;;;;2.63;2.43;;;12.10;99.90;;;;;;5044794;28;20504;-71
2023/01/01 03:21:59;;;;;;;3.23;2.90;;;12.10;99.90;;;;;;5020374;28;20490;-71
2023/01/01 03:24:36;;;;;;;4.50;2.80;;;12.10;99.90;;;;;;5030517;28;20486;-71
2023/01/01 03:27:16;;;;;;;3.67;2.90;;;12.10;99.90;;;;;;5030559;28;20454;-72
2023/01/01 03:29:44;;;;;;;3.10;2.80;;;12.10;99.90;;;;;;5035823;28;20458;-71
2023/01/01 03:32:15;;;;;;;5.27;2.60;;;12.10;99.90;;;;;;5014941;28;20500;-71
2023/01/01 03:34:46;;;;;;;6.47;2.60;;;12.10;99.90;;;;;;5013468;28;20459;-71
2023/01/01 03:37:15;;;;;;;3.10;2.30;;;12.00;99.90;;;;;;5014197;28;20508;-71
2023/01/01 03:39:47;;;;;;;2.60;2.40;;;12.00;99.90;;;;;;5030460;28;20473;-71
2023/01/01 03:42:31;;;;;;;4.90;2.87;;;12.00;99.90;;;;;;5015332;28;20470;-71
2023/01/01 03:45:00;;;;;;;7.23;2.40;;;12.00;99.90;;;;;;5029766;28;20919;-71
2023/01/01 03:47:27;;;;;;;3.97;3.07;;;12.00;99.90;;;;;;5012887;28;20501;-71
2023/01/01 03:49:54;;;;;;;3.83;2.80;;;12.00;99.90;;;;;;5015941;28;20455;-71
2023/01/01 03:52:41;;;;;;;4.00;2.73;;;12.00;99.90;;;;;;5035830;28;20549;-71
2023/01/01 03:55:30;;;;;;;4.47;3.37;;;12.00;99.90;;;;;;5029583;28;20473;-71
2023/01/01 03:58:38;;;;;;;2.90;2.03;;;12.00;99.90;;;;;;5007334;28;20525;-72
2023/01/01 04:01:13;;;;;;;3.87;2.40;;;11.90;99.90;;;;;;5026390;28;20482;-71
2023/01/01 04:03:40;;;;;;;2.87;2.47;;;11.90;99.90;;;;;;5015745;28;20462;-72
2023/01/01 04:06:07;;;;;;;6.97;3.20;;;11.90;99.90;;;;;;5027094;28;20450;-71
2023/01/01 04:08:34;;;;;;;3.37;2.53;;;11.90;99.90;;;;;;5026916;28;20470;-70
2023/01/01 04:12:00;;;;;;;2.67;2.40;;;11.90;99.90;;;;;;5016964;28;20443;-71
2023/01/01 04:13:50;;;;;;;3.20;2.50;;;11.90;99.90;;;;;;5043940;28;20864;-71
2023/01/01 04:16:16;;;;;;;2.77;2.17;;;11.90;99.90;;;;;;5016905;28;20461;-71
2023/01/01 04:18:42;;;;;;;3.07;2.23;;;11.90;99.90;;;;;;5050115;28;20262;-72
2023/01/01 04:21:07;;;;;;;2.60;2.27;;;11.90;99.90;;;;;;5033178;28;20299;-71
2023/01/01 04:23:33;;;;;;;4.60;2.97;;;11.80;99.90;;;;;;5032515;28;20247;-70
2023/01/01 04:25:58;;;;;;;3.23;2.40;;;11.80;99.90;;;;;;5032849;28;20220;-71
2023/01/01 04:28:24;;;;;;;4.27;3.77;;;11.80;99.90;;;;;;5032268;28;20757;-71
2023/01/01 04:30:50;;;;;;;2.77;2.40;;;11.80;99.90;;;;;;5031817;28;20645;-71
2023/01/01 04:33:15;;;;;;;5.13;2.93;;;11.80;99.90;;;;;;5017087;28;20211;-71
2023/01/01 04:35:41;;;;;;;2.90;2.30;;;11.80;99.90;;;;;;5032656;28;20235;-71
2023/01/01 04:38:12;;;;;;;3.83;2.50;;;11.80;99.90;;;;;;5033714;28;20247;-71
2023/01/01 04:40:37;;;;;;;5.80;3.70;;;11.80;99.90;;;;;;5047142;28;20219;-72
2023/01/01 04:43:04;;;;;;;4.00;2.53;;;11.70;99.90;;;;;;5010908;28;20914;-71
2023/01/01 04:45:29;;;;;;;3.10;2.80;;;11.70;99.90;;;;;;5006755;28;20550;-71
2023/01/01 04:47:55;;;;;;;7.40;2.80;;;11.70;99.90;;;;;;5050143;28;20220;-72
2023/01/01 04:50:21;;;;;;;3.07;2.50;;;11.80;99.90;;;;;;5027980;28;20231;-71
2023/01/01 04:52:50;;;;;;;4.40;2.90;;;11.80;99.90;;;;;;5016039;28;20220;-71
2023/01/01 04:55:16;;;;;;;3.30;2.57;;;11.80;99.90;;;;;;5032837;28;20682;-71
2023/01/01 04:57:41;;;;;;;3.53;2.90;;;11.80;99.90;;;;;;5013925;28;20550;-71
2023/01/01 05:00:08;;;;;;;3.97;2.73;;;11.80;99.90;;;;;;5032519;28;20549;-71
2023/01/01 05:02:33;;;;;;;4.20;3.30;;;11.80;99.90;;;;;;5050333;28;20239;-71
2023/01/01 05:04:59;;;;;;;2.50;2.13;;;11.80;99.90;;;;;;5015462;28;20970;-71
2023/01/01 05:07:25;;;;;;;3.30;3.00;;;11.80;99.90;;;;;;5032285;28;20232;-71
2023/01/01 05:09:50;;;;;;;3.70;2.43;;;11.80;99.90;;;;;;5045252;28;20306;-71
2023/01/01 05:12:16;;;;;;;2.87;2.57;;;11.80;99.90;;;;;;5032121;28;20235;-71
2023/01/01 05:14:42;;;;;;;4.20;3.20;;;11.80;99.90;;;;;;5029832;28;20227;-72
2023/01/01 05:17:07;;;;;;;4.30;2.50;;;11.80;99.90;;;;;;5032557;28;20224;-71
2023/01/01 05:19:33;;;;;;;4.67;3.03;;;11.80;99.90;;;;;;5006181;28;20224;-71
2023/01/01 05:21:59;;;;;;;4.80;2.60;;;11.80;99.90;;;;;;5011555;28;20215;-71
2023/01/01 05:24:24;;;;;;;4.43;2.60;;;11.80;99.90;;;;;;5030028;28;20575;-70
2023/01/01 05:26:50;;;;;;;2.90;2.60;;;11.80;99.90;;;;;;5007667;28;20266;-71
2023/01/01 05:29:16;;;;;;;3.17;2.87;;;11.80;99.90;;;;;;5013015;28;20273;-70
2023/01/01 05:31:41;;;;;;;3.13;2.53;;;11.80;99.90;;;;;;5020339;28;20220;-71
2023/01/01 05:34:07;;;;;;;3.20;2.90;;;11.80;99.90;;;;;;5002951;28;20228;-70
2023/01/01 05:36:37;;;;;;;3.23;2.93;;;11.80;99.90;;;;;;5022925;28;20235;-71
2023/01/01 05:39:04;;;;;;;4.37;2.90;;;11.80;99.90;;;;;;5043704;28;20228;-71
2023/01/01 05:41:32;;;;;;;4.50;2.97;;;11.70;99.90;;;;;;5045800;28;20907;-71
2023/01/01 05:44:01;;;;;;;3.13;2.77;;;11.80;99.90;;;;;;5026134;28;20466;-71
2023/01/01 05:46:27;;;;;;;3.27;2.97;;;11.70;99.90;;;;;;5026779;28;20458;-72
2023/01/01 05:48:53;;;;;;;2.30;2.13;;;11.70;99.90;;;;;;5028868;28;20512;-71
2023/01/01 05:51:24;;;;;;;5.40;3.13;;;11.70;99.90;;;;;;5030940;28;20261;-71
2023/01/01 05:53:50;;;;;;;3.17;2.87;;;11.70;99.90;;;;;;5014266;28;20447;-72
2023/01/01 05:56:16;;;;;;;3.27;2.43;;;11.80;99.90;;;;;;5030546;28;20462;-71
2023/01/01 05:58:43;;;;;;;5.90;2.70;;;11.80;99.90;;;;;;5030613;28;20512;-71
2023/01/01 06:01:18;;;;;;;3.17;2.50;;;11.80;99.90;;;;;;5032063;28;20450;-72
2023/01/01 06:03:44;;;;;;;4.37;2.70;;;11.80;99.90;;;;;;5028630;28;20451;-71
2023/01/01 06:06:12;;;;;;;5.23;2.70;;;11.80;99.90;;;;;;5019986;28;20454;-71
2023/01/01 06:08:39;;;;;;;2.80;2.50;;;11.80;99.90;;;;;;5047569;28;20461;-71
2023/01/01 06:11:07;;;;;;;2.73;2.23;;;11.70;99.90;;;;;;5023685;28;20490;-71
2023/01/01 06:13:33;;;;;;;3.43;2.60;;;11.80;99.90;;;;;;5021740;28;21031;-71
2023/01/01 06:16:00;;;;;;;4.13;3.00;;;11.70;99.90;;;;;;5031169;28;20529;-71
2023/01/01 06:18:30;;;;;;;3.60;2.67;;;11.70;99.90;;;;;;5016416;28;20475;-71
2023/01/01 06:21:03;;;;;;;3.17;2.87;;;11.80;99.90;;;;;;5026894;28;20449;-71
2023/01/01 06:23:29;;;;;;;2.70;2.50;;;11.70;99.90;;;;;;5017993;28;20439;-70
2023/01/01 06:25:54;;;;;;;2.73;2.50;;;11.80;99.90;;;;;;5030635;28;20865;-71
2023/01/01 06:28:20;;;;;;;4.77;2.70;;;11.80;99.90;;;;;;5026824;28;20704;-70
2023/01/01 06:30:46;;;;;;;2.67;2.43;;;11.70;99.90;;;;;;5028246;28;20239;-71
2023/01/01 06:33:11;;;;;;;5.27;2.90;;;11.80;99.90;;;;;;5031435;28;20227;-71
2023/01/01 06:35:37;;;;;;;5.27;2.30;;;11.80;99.90;;;;;;5014887;28;20262;-71
2023/01/01 06:38:03;;;;;;;5.17;2.67;;;11.80;99.90;;;;;;5048307;28;20216;-71
2023/01/01 06:40:29;;;;;;;3.23;2.67;;;11.80;99.90;;;;;;5017697;28;20220;-71
2023/01/01 06:42:55;;;;;;;3.70;2.50;;;11.80;99.90;;;;;;5015048;28;20216;-71
2023/01/01 06:45:20;;;;;;;3.20;2.30;;;11.80;99.90;;;;;;5030783;28;20439;-71
2023/01/01 06:47:46;;;;;;;3.40;2.50;;;11.80;99.90;;;;;;5035471;28;20231;-71
2023/01/01 06:50:12;;;;;;;2.60;2.33;;;11.80;99.90;;;;;;5026579;28;20224;-71
2023/01/01 06:52:37;;;;;;;3.70;2.67;;;11.80;99.90;;;;;;5014581;28;20207;-73
2023/01/01 06:55:03;;;;;;;2.80;2.50;;;11.80;99.90;;;;;;5041530;28;20204;-71
2023/01/01 06:57:29;;;;;;;3.00;2.30;;;11.70;99.90;;;;;;5014240;28;20580;-71
2023/01/01 06:59:55;;;;;;;3.03;2.20;;;11.70;99.90;;;;;;5030910;28;20477;-71
2023/01/01 07:02:20;;;;;;;2.80;2.30;;;11.70;99.90;;;;;;5021847;28;20303;-71
2023/01/01 07:04:46;;;;;;;4.33;2.23;;;11.70;99.90;;;;;;5025152;28;20274;-71
2023/01/01 07:07:12;;;;;;;3.27;2.60;;;11.70;99.90;;;;;;5031860;28;20235;-71
2023/01/01 07:09:37;;;;;;;2.37;2.17;;;11.70;99.90;;;;;;5031219;28;20219;-71
2023/01/01 07:12:03;;;;;;;5.77;2.53;;;11.70;99.90;;;;;;5014760;28;20218;-71
2023/01/01 07:14:29;;;;;;;3.73;2.60;;;11.70;99.90;;;;;;5027346;28;20290;-71
2023/01/01 07:16:54;;;;;;;3.37;2.50;;;11.70;99.90;;;;;;5014843;28;20282;-71
2023/01/01 07:19:20;;;;;;;5.13;2.60;;;11.70;99.90;;;;;;5017306;28;20378;-71
2023/01/01 07:21:52;;;;;;;4.57;2.60;;;11.70;99.90;;;;;;5032867;28;20219;-71
2023/01/01 07:24:18;;;;;;;3.30;2.23;;;11.60;99.90;;;;;;5037283;28;20220;-71
2023/01/01 07:26:44;;;;;;;2.40;2.20;;;11.60;99.90;;;;;;5052316;28;20458;-71
2023/01/01 07:29:11;;;;;;;3.80;3.17;;;11.60;99.90;;;;;;5040518;28;20446;-71
2023/01/01 07:31:42;;;;;;;2.90;2.30;;;11.60;99.90;;;;;;5034706;28;20240;-71
2023/01/01 07:34:13;;;;;;;2.57;2.00;;;11.60;99.90;;;;;;5029719;28;20442;-71
2023/01/01 07:36:40;;;;;;;2.80;2.50;;;11.60;99.90;;;;;;5035124;28;20451;-71
2023/01/01 07:39:05;;;;;;;4.70;2.70;;;11.60;99.90;;;;;;5032329;28;20566;-71
2023/01/01 07:41:31;;;;;;;6.00;2.60;;;11.60;99.90;;;;;;5031790;28;20605;-71
2023/01/01 07:43:58;;;;;;;4.67;2.60;;;11.60;99.90;;;;;;5018783;28;20235;-71
2023/01/01 07:46:23;;;;;;;3.37;2.70;;;11.60;99.90;;;;;;5017922;28;20469;-71
2023/01/01 07:48:49;;;;;;;3.50;2.17;;;11.60;99.90;;;;;;5031432;28;20226;-71
2023/01/01 07:51:15;;;;;;;5.10;2.50;;;11.60;99.90;;;;;;5034293;28;20302;-71
2023/01/01 07:53:40;;;;;;;3.00;2.30;;;11.60;99.90;;;;;;5015072;28;20220;-70
2023/01/01 07:56:07;;;;;;;5.70;2.10;;;11.60;99.90;;;;;;5016204;28;20221;-70
2023/01/01 07:58:32;;;;;;;2.40;2.20;;;11.60;99.90;;;;;;5020019;28;20616;-70
2023/01/01 08:00:58;;;;;;;2.40;2.20;;;11.60;99.90;;;;;;5017559;28;20463;-71
2023/01/01 08:03:24;;;;;;;4.90;2.90;;;11.60;99.90;;;;;;5016872;28;20219;-70
2023/01/01 08:05:49;;;;;;;4.40;2.63;;;11.60;99.90;;;;;;5034263;28;20215;-71
2023/01/01 08:08:15;;;;;;;5.47;2.90;;;11.60;99.90;;;;;;5020732;28;20274;-71
2023/01/01 08:10:41;;;;;;;2.70;2.23;;;11.60;99.90;;;;;;5034378;28;20229;-71
2023/01/01 08:13:08;;;;;;;4.13;2.27;;;11.60;99.90;;;;;;5034492;28;20335;-71
2023/01/01 08:15:34;;;;;;;3.90;2.70;;;11.50;99.90;;;;;;5033621;28;20604;-71
2023/01/01 08:18:04;;;;;;;3.13;2.60;;;11.60;99.90;;;;;;5035837;28;20504;-71
2023/01/01 08:20:31;;;;;;;3.30;3.00;;;11.60;99.90;;;;;;5017367;28;20462;-71
2023/01/01 08:22:56;;;;;;;3.23;2.00;;;11.60;99.90;;;;;;5031840;28;20975;-71
2023/01/01 08:25:24;;;;;;;3.40;2.37;;;11.60;99.90;;;;;;5033276;28;20466;-71
2023/01/01 08:27:50;;;;;;;2.50;2.30;;;11.60;99.90;;;;;;5033149;28;20466;-71
2023/01/01 08:30:16;;;;;;;2.47;2.27;;;11.60;99.90;;;;;;5032760;28;20497;-71
2023/01/01 08:32:41;;;;;;;4.00;2.43;;;11.60;99.90;;;;;;5014210;28;20710;-70
2023/01/01 08:35:08;;;;;;;2.80;2.00;;;11.60;99.90;;;;;;5017116;28;20537;-71
2023/01/01 08:37:33;;;;;;;3.20;2.40;;;11.60;99.90;;;;;;5015301;28;20857;-71
2023/01/01 08:39:59;;;;;;;3.10;2.80;;;11.60;99.90;;;;;;5033388;28;20487;-72
2023/01/01 08:42:25;;;;;;;5.00;2.27;;;11.60;99.90;;;;;;5033743;28;20255;-71
2023/01/01 08:44:50;;;;;;;4.70;2.60;;;11.60;99.90;;;;;;5033636;28;20208;-71
2023/01/01 08:47:25;;;;;;;5.47;2.50;;;11.60;99.90;;;;;;5013562;28;20225;-71
2023/01/01 08:49:51;;;;;;;7.53;3.00;;;11.60;99.90;;;;;;5026782;28;20223;-71
2023/01/01 08:52:17;;;;;;;4.23;2.40;;;11.60;99.90;;;;;;5032280;28;20459;-71
2023/01/01 08:54:43;;;;;;;2.90;2.33;;;11.70;99.90;;;;;;5021456;28;20621;-71
2023/01/01 08:57:09;;;;;;;3.00;2.40;;;11.70;99.90;;;;;;5031915;28;20458;-71
2023/01/01 08:59:34;;;;;;;3.40;2.70;;;11.60;99.90;;;;;;5050097;28;20470;-71
2023/01/01 09:02:00;;;;;;;2.73;2.50;;;11.70;99.90;;;;;;5016834;28;20224;-72
2023/01/01 09:04:26;;;;;;;6.03;2.43;;;11.70;99.90;;;;;;5033085;28;20220;-71
2023/01/01 09:06:52;;;;;;;2.80;2.20;;;11.70;99.90;;;;;;5033441;28;20219;-71
2023/01/01 09:09:18;;;;;;;3.00;2.20;;;11.70;99.90;;;;;;5026269;28;20228;-71
2023/01/01 09:11:51;;;;;;;3.73;2.37;;;11.80;99.90;;;;;;5030351;28;20224;-70
2023/01/01 09:14:18;;;;;;;4.50;2.23;;;11.80;99.90;;;;;;5050313;28;20306;-71
2023/01/01 09:16:43;;;;;;;3.97;2.50;;;11.80;99.90;;;;;;5024802;28;20467;-71
2023/01/01 09:19:09;;;;;;;5.13;2.70;;;11.80;99.90;;;;;;5032763;28;20466;-71
2023/01/01 09:21:36;;;;;;;4.07;2.70;;;11.80;99.90;;;;;;5032930;28;20220;-71
2023/01/01 09:24:02;;;;;;;2.43;2.23;;;11.80;99.90;;;;;;5032881;28;20830;-72
2023/01/01 09:26:27;;;;;;;2.73;2.40;;;11.80;99.90;;;;;;5032594;28;20247;-70
2023/01/01 09:28:53;;;;;;;4.43;2.30;;;11.80;99.90;;;;;;5032567;28;20230;-71
2023/01/01 09:31:19;;;;;;;3.17;2.30;;;11.80;99.90;;;;;;5015048;28;20212;-72
2023/01/01 09:33:45;;;;;;;5.37;2.83;;;11.80;99.90;;;;;;5018756;28;20220;-71
2023/01/01 09:36:24;;;;;;;3.53;2.93;;;11.90;99.90;;;;;;5016347;28;20255;-72
2023/01/01 09:38:52;;;;;;;2.90;2.70;;;11.90;99.90;;;;;;5030443;28;20220;-71
2023/01/01 09:41:25;;;;;;;5.20;2.33;;;11.90;99.90;;;;;;5030124;28;20454;-70
2023/01/01 09:44:33;;;;;;;6.63;2.80;;;12.00;99.90;;;;;;5047270;28;20840;-66
2023/01/01 09:47:02;;;;;;;15.10;2.50;;;12.00;99.90;;;;;;4984112;28;20962;-68
2023/01/01 09:49:38;;;;;;;4.07;2.37;;;12.00;99.90;;;;;;5031039;28;20461;-67
2023/01/01 09:52:04;;;;;;;4.60;3.17;;;12.00;99.90;;;;;;5029990;28;20458;-70
2023/01/01 09:55:09;;;;;;;5.07;2.90;;;12.00;99.90;;;;;;5011012;28;21044;-70
2023/01/01 09:57:35;;;;;;;4.13;3.73;;;12.10;99.90;;;;;;5011355;28;20473;-71
2023/01/01 10:00:00;;;;;;;5.07;4.67;;;12.10;99.90;;;;;;5028762;28;20928;-71
2023/01/01 10:02:50;;;;;;;9.50;7.40;;;12.20;99.90;;;;;;5029037;28;20238;-71
2023/01/01 10:05:41;;;;;;;10.73;6.67;;;12.20;99.90;;;;;;5029500;28;20223;-72
2023/01/01 10:08:31;;;;;;;5.97;5.37;;;12.20;99.90;;;;;;5040907;28;20574;-71
2023/01/01 10:11:08;;;;;;;6.57;4.70;;;12.20;99.90;;;;;;5030519;28;20504;-71
2023/01/01 10:13:40;;;;;;;5.20;4.00;;;12.20;99.90;;;;;;5010042;28;20538;-71
2023/01/01 10:16:12;;;;;;;5.87;3.60;;;12.30;99.90;;;;;;5048679;28;20463;-71
2023/01/01 10:18:40;;;;;;;5.30;3.53;;;12.30;99.90;;;;;;5012383;28;20799;-72
2023/01/01 10:21:21;;;;;;;3.43;2.80;;;12.40;99.90;;;;;;5008858;28;20536;-72
2023/01/01 10:23:53;;;;;;;4.20;2.80;;;12.40;99.90;;;;;;5021214;28;20465;-72
2023/01/01 10:26:23;;;;;;;3.27;2.93;;;12.40;99.90;;;;;;5028848;28;20454;-72
2023/01/01 10:29:00;;;;;;;3.07;2.70;;;12.40;99.90;;;;;;5010663;28;20815;-72
2023/01/01 10:31:34;;;;;;;4.23;2.83;;;12.50;99.90;;;;;;5012739;28;20458;-71
2023/01/01 10:34:11;;;;;;;6.13;3.47;;;12.50;99.90;;;;;;5015069;28;20489;-71
2023/01/01 10:36:37;;;;;;;7.20;3.23;;;12.50;99.90;;;;;;5023308;28;20530;-71
2023/01/01 10:39:03;;;;;;;6.70;5.47;;;12.50;99.90;;;;;;5014299;28;20612;-71
2023/01/01 10:41:29;;;;;;;17.63;9.60;;;12.50;99.90;;;;;;5030316;28;20252;-70
2023/01/01 10:43:55;;;;;;;12.37;7.70;;;12.60;99.90;;;;;;5025829;28;20237;-71
2023/01/01 10:46:23;;;;;;;24.87;16.67;;;12.60;99.90;;;;;;5040925;28;20455;-71
2023/01/01 10:49:04;;;;;;;43.97;25.20;;;12.60;99.90;;;;;;5024501;28;20220;-72
2023/01/01 10:51:30;;;;;;;49.50;29.10;;;12.60;99.90;;;;;;5035988;28;20538;-72
2023/01/01 10:53:56;;;;;;;71.50;41.20;;;12.60;99.90;;;;;;5030753;28;20492;-72
2023/01/01 10:56:23;;;;;;;52.90;32.80;;;12.60;99.90;;;;;;5047373;28;20639;-71
2023/01/01 10:58:54;;;;;;;39.77;23.10;;;12.60;99.90;;;;;;5050457;28;20314;-71
2023/01/01 11:01:21;;;;;;;29.37;17.40;;;12.70;99.90;;;;;;5034201;28;20478;-71
2023/01/01 11:03:58;;;;;;;15.53;10.93;;;12.70;99.90;;;;;;5015539;28;20520;-71
2023/01/01 11:06:40;;;;;;;8.50;7.50;;;12.70;99.90;;;;;;5018808;28;20450;-71
2023/01/01 11:09:22;;;;;;;7.50;4.80;;;12.70;99.90;;;;;;5017810;28;20504;-72
2023/01/01 11:11:59;;;;;;;5.83;3.80;;;12.70;99.90;;;;;;5034043;28;20449;-72
2023/01/01 11:14:28;;;;;;;4.60;3.80;;;12.70;99.90;;;;;;5013071;28;20465;-71
2023/01/01 11:16:55;;;;;;;5.83;4.23;;;12.80;99.90;;;;;;5035092;28;20465;-72
2023/01/01 11:19:33;;;;;;;8.77;3.77;;;12.80;99.90;;;;;;5017500;28;20481;-72
2023/01/01 11:21:59;;;;;;;2.93;2.63;;;12.80;99.90;;;;;;5022413;28;20462;-71
2023/01/01 11:24:26;;;;;;;4.30;2.90;;;12.80;99.90;;;;;;5010556;28;20452;-72
2023/01/01 11:27:09;;;;;;;4.37;3.07;;;12.80;99.90;;;;;;5016471;28;20440;-71
2023/01/01 11:29:34;;;;;;;4.73;3.40;;;12.90;99.90;;;;;;5024468;28;20527;-71
2023/01/01 11:32:00;;;;;;;4.00;3.33;;;12.90;99.90;;;;;;5017640;28;20876;-73
2023/01/01 11:34:36;;;;;;;5.63;3.00;;;13.00;99.90;;;;;;5034165;28;20231;-72
2023/01/01 11:37:25;;;;;;;5.33;4.57;;;13.00;99.90;;;;;;5033067;28;20243;-73
2023/01/01 11:39:55;;;;;;;6.97;2.83;;;13.00;99.90;;;;;;5050072;28;20458;-70
2023/01/01 11:42:22;;;;;;;12.20;3.37;;;13.00;99.90;;;;;;5026564;28;20461;-71
2023/01/01 11:44:59;;;;;;;8.97;3.47;;;13.10;99.90;;;;;;5032290;28;20533;-71
2023/01/01 11:47:27;;;;;;;8.17;3.30;;;13.10;99.90;;;;;;5012953;28;20861;-71
2023/01/01 11:50:15;;;;;;;7.60;4.40;;;13.10;99.90;;;;;;5031305;28;21029;-71
2023/01/01 11:52:52;;;;;;;4.13;3.00;;;13.10;99.90;;;;;;4996930;28;20820;-71
2023/01/01 11:55:27;;;;;;;7.73;4.43;;;13.10;99.90;;;;;;5028224;28;20458;-71
2023/01/01 11:58:00;;;;;;;6.70;5.10;;;13.10;99.90;;;;;;5023818;28;20474;-70
2023/01/01 12:00:31;;;;;;;9.70;6.57;;;13.10;99.90;;;;;;5012410;28;20467;-70
2023/01/01 12:03:21;;;;;;;11.23;7.00;;;13.10;99.90;;;;;;5031185;28;20495;-71
2023/01/01 12:05:56;;;;;;;6.47;5.03;;;13.20;99.90;;;;;;5012648;28;20882;-70
2023/01/01 12:08:34;;;;;;;4.93;3.13;;;13.20;99.90;;;;;;5036430;28;20550;-71
2023/01/01 12:11:10;;;;;;;4.67;2.90;;;13.20;99.90;;;;;;5032291;28;20992;-71
2023/01/01 12:14:03;;;;;;;5.67;2.60;;;13.20;99.90;;;;;;5025187;28;20959;-71
2023/01/01 12:17:05;;;;;;;3.30;2.43;;;13.30;99.90;;;;;;5033224;28;20455;-71
2023/01/01 12:19:57;;;;;;;10.30;2.87;;;13.30;99.90;;;;;;5016237;28;20466;-70
2023/01/01 12:22:24;;;;;;;3.43;2.47;;;13.30;99.90;;;;;;5027693;28;20508;-72
2023/01/01 12:24:51;;;;;;;7.10;2.60;;;13.20;99.90;;;;;;5028008;28;20537;-72
2023/01/01 12:27:23;;;;;;;4.17;3.03;;;13.20;99.90;;;;;;5015382;28;20480;-71
2023/01/01 12:30:14;;;;;;;8.37;2.57;;;13.30;99.90;;;;;;5031278;28;20454;-71
2023/01/01 12:33:02;;;;;;;6.40;3.07;;;13.30;99.90;;;;;;4990877;28;20492;-71
2023/01/01 12:35:36;;;;;;;6.17;2.50;;;13.30;99.90;;;;;;5038680;28;20932;-70
2023/01/01 12:38:39;;;;;;;3.53;2.70;;;13.30;99.90;;;;;;5024380;28;20442;-70
2023/01/01 12:41:13;;;;;;;3.33;2.30;;;13.30;99.90;;;;;;5015056;28;20458;-73
2023/01/01 12:43:51;;;;;;;4.73;2.60;;;13.30;99.90;;;;;;5012384;28;20838;-73
2023/01/01 12:46:22;;;;;;;4.33;3.10;;;13.30;99.90;;;;;;5030523;28;20446;-71
2023/01/01 12:51:40;;;;;;;2.53;2.33;;;13.30;99.90;;;;;;5092645;27;20961;-71
2023/01/01 12:54:33;;;;;;;6.50;2.67;;;13.30;99.90;;;;;;5034469;28;20578;-72
2023/01/01 12:57:09;;;;;;;3.80;2.43;;;13.30;99.90;;;;;;5067142;28;20468;-71
2023/01/01 12:59:40;;;;;;;4.30;3.10;;;13.30;99.90;;;;;;5058711;28;20808;-72
2023/01/01 13:02:17;;;;;;;14.67;6.63;;;13.30;99.90;;;;;;5063082;28;20460;-71
2023/01/01 13:04:46;;;;;;;9.53;6.60;;;13.30;99.90;;;;;;5063720;28;20446;-71
2023/01/01 13:07:13;;;;;;;9.17;6.80;;;13.30;99.90;;;;;;5060923;28;20984;-72
2023/01/01 13:09:44;;;;;;;10.10;8.60;;;13.30;99.90;;;;;;5058186;28;20479;-71
2023/01/01 13:12:16;;;;;;;15.17;10.47;;;13.30;99.90;;;;;;5082018;28;20452;-71